Stations météo

réclame
Mon MeteoGroup
Fichtelberg, Allemagne (10578): Température de l'air & dewpoint: 17.04.2018 00:00:00 - 23.04.2018 00:00:00 (CEST)Fichtelberg, Allemagne (10578): Température de l'air 5cm & Température de l'air -5cm: 17.04.2018 00:00:00 - 23.04.2018 00:00:00 (CEST)Fichtelberg, Allemagne (10578): Température de l'air -20cm & Température de l'air -100cm: 17.04.2018 00:00:00 - 23.04.2018 00:00:00 (CEST)Fichtelberg, Allemagne (10578): Vitesse du vent & gusts: 17.04.2018 00:00:00 - 23.04.2018 00:00:00 (CEST)Fichtelberg, Allemagne (10578): Direction du vent: 17.04.2018 00:00:00 - 23.04.2018 00:00:00 (CEST)Fichtelberg, Allemagne (10578): visibility: 17.04.2018 00:00:00 - 23.04.2018 00:00:00 (CEST)Fichtelberg, Allemagne (10578): Ensoleillement: 17.04.2018 00:00:00 - 23.04.2018 00:00:00 (CEST)
Date & Time tt [°C] td [°C] tt 5cm [°C] tt -5cm [°C] tt -20cm [°C] tt -100cm [°C] ff [km/h] ff [knt] fx [km/h] fx [knt] dd vv [km] sd [min]
23.04.2018 00:00:00 - - - - - - - - - - - - -
22.04.2018 23:00:00 14,7 6,5 11,8 13,3 13,8 5,7 18 10 24 13 SSW 50 0
22.04.2018 22:00:00 14,2 6,6 11,4 14,4 13,9 5,7 12 6 18 10 SSE 50 0
22.04.2018 21:00:00 14,7 6,8 11,9 15,6 13,9 5,7 10 5 17 9 SE 50 0
22.04.2018 20:00:00 15,3 6,4 12,8 17,3 13,8 5,7 15 8 18 10 S 45 24
22.04.2018 19:00:00 17,2 6,8 17,1 18,7 13,5 5,6 13 7 18 10 S 45 33
22.04.2018 18:00:00 17,6 5,3 17,4 20,1 13,2 5,6 9 5 19 10 WSW 45 20
22.04.2018 17:00:00 18,9 5,5 19,8 21,1 12,8 5,6 14 8 29 15 WSW 40 53
22.04.2018 16:00:00 17,7 6,6 19,9 20,5 12,3 5,6 19 10 40 22 W 40 42
22.04.2018 15:00:00 17,7 6,5 21,0 20,0 11,8 5,6 18 10 34 18 W 40 28
22.04.2018 14:00:00 18,7 6,3 21,2 20,0 11,4 5,6 18 10 39 21 WNW 35 58
22.04.2018 13:00:00 17,7 4,8 21,6 17,9 11,0 5,6 18 10 32 18 W 30 51
22.04.2018 12:00:00 16,8 6,6 21,1 16,3 10,7 5,5 19 11 29 16 SW 30 57
22.04.2018 11:00:00 14,8 8,1 19,1 14,1 10,6 5,5 15 8 26 14 SW 25 60
22.04.2018 10:00:00 13,1 8,1 16,4 11,6 10,7 5,5 16 9 24 13 SW 24 60
22.04.2018 09:00:00 12,1 8,0 14,5 9,5 10,9 5,5 12 7 17 9 SSW 20 60
22.04.2018 08:00:00 10,9 7,4 10,3 8,0 11,1 5,5 14 7 16 9 SSW 20 60
22.04.2018 07:00:00 9,5 6,8 6,7 7,8 11,4 5,5 12 7 14 8 SW 25 14
22.04.2018 06:00:00 9,2 6,2 5,6 8,1 11,7 5,5 11 6 13 7 SW 30 0
22.04.2018 05:00:00 9,0 6,4 5,2 8,5 12,0 5,4 6 4 9 5 SSW 30 0
22.04.2018 04:00:00 9,2 6,3 4,6 9,1 12,3 5,4 0 0 6 3 N 30 0
22.04.2018 03:00:00 9,1 6,9 5,1 9,7 12,5 5,4 4 2 9 5 SE 15 0
22.04.2018 02:00:00 9,1 8,0 6,8 10,4 12,8 5,4 7 4 13 7 ENE 12 0
22.04.2018 01:00:00 9,5 8,7 8,1 10,9 13,1 5,4 11 6 21 11 N 15 0
22.04.2018 00:00:00 9,5 8,6 8,4 11,5 13,3 5,4 21 11 24 13 N 20 0
21.04.2018 23:00:00 9,9 8,2 8,7 12,2 13,6 5,4 22 12 26 14 N 20 0
21.04.2018 22:00:00 10,3 8,1 9,1 13,1 13,8 5,3 24 13 28 15 N 20 0
21.04.2018 21:00:00 10,9 7,7 9,7 14,4 13,9 5,3 25 14 30 16 NNW 14 0
21.04.2018 20:00:00 11,8 8,2 10,8 16,2 13,8 5,3 25 14 30 16 NNW 14 38
21.04.2018 19:00:00 13,7 8,8 13,1 18,5 13,6 5,3 23 12 32 17 NNW 14 60
21.04.2018 18:00:00 15,0 8,6 15,7 20,1 13,3 5,3 23 13 35 19 NNW 16 60
21.04.2018 17:00:00 16,5 8,8 18,2 21,0 12,9 5,3 23 12 32 18 NW 16 60
21.04.2018 16:00:00 16,9 9,4 19,9 20,3 12,5 5,2 21 12 32 17 NNW 16 28
21.04.2018 15:00:00 17,7 9,6 21,5 21,2 12,0 5,2 23 13 33 18 NW 20 58
21.04.2018 14:00:00 16,9 9,3 19,5 20,5 11,5 5,2 21 11 32 17 NW 35 58
21.04.2018 13:00:00 18,1 9,3 22,8 18,9 11,1 5,2 19 11 29 16 NNW 50 60
21.04.2018 12:00:00 17,1 7,9 21,5 16,8 10,9 5,2 13 7 22 12 NW 60 60
21.04.2018 11:00:00 16,9 6,8 21,0 14,6 10,8 5,2 11 6 16 9 NW 60 60
21.04.2018 10:00:00 16,1 5,2 19,1 12,2 10,8 5,2 8 4 17 9 WNW 60 60
21.04.2018 09:00:00 15,0 3,9 17,1 10,1 11,0 5,1 15 8 26 14 W 60 60
21.04.2018 08:00:00 13,4 2,5 13,7 8,9 11,2 5,1 22 12 - - WSW 70 60
21.04.2018 07:00:00 12,7 2,3 10,2 8,9 11,5 5,1 34 19 41 22 WSW 70 23
21.04.2018 06:00:00 12,6 2,5 10,0 9,2 11,7 5,1 36 20 46 25 WSW 70 0
21.04.2018 05:00:00 13,0 1,7 10,4 9,5 12,0 5,1 41 22 49 26 WSW 70 0
21.04.2018 04:00:00 13,4 1,5 10,6 10,0 12,2 5,1 42 23 45 25 WSW 70 0
21.04.2018 03:00:00 14,1 2,5 11,5 10,5 12,5 5,1 35 19 39 21 WSW 60 0
21.04.2018 02:00:00 14,5 3,8 12,3 10,9 12,8 5,1 31 17 34 18 SW 65 0
21.04.2018 01:00:00 14,8 3,5 11,8 11,4 13,1 5,0 26 14 32 18 S 65 0
21.04.2018 00:00:00 15,1 2,8 11,8 12,0 13,3 5,0 26 14 30 16 S 65 0
20.04.2018 23:00:00 15,2 2,5 11,5 12,9 13,6 5,0 24 13 29 16 S 70 0
20.04.2018 22:00:00 15,4 1,0 11,7 14,0 13,7 5,0 24 13 31 17 S 65 0
20.04.2018 21:00:00 15,7 1,3 12,3 15,5 13,7 5,0 24 13 32 17 S 70 3
20.04.2018 20:00:00 16,7 2,0 13,8 17,5 13,6 5,0 24 13 34 19 S 70 60
20.04.2018 19:00:00 18,1 1,6 16,5 20,1 13,3 5,0 24 13 31 17 SSE 60 60
20.04.2018 18:00:00 19,5 2,0 20,2 21,9 12,8 4,9 22 12 36 19 S 45 60
20.04.2018 17:00:00 20,3 5,3 22,7 22,6 12,3 4,9 16 8 31 17 S 45 60
20.04.2018 16:00:00 20,5 5,2 23,7 22,8 11,7 4,9 17 9 33 18 S 50 60
20.04.2018 15:00:00 20,0 4,6 24,4 22,2 11,1 4,9 18 10 27 15 S 50 60
20.04.2018 14:00:00 19,7 6,6 24,9 20,9 10,6 4,9 16 8 26 14 SSE 50 60
20.04.2018 13:00:00 18,8 6,3 24,0 18,9 10,1 4,9 14 8 24 13 SSE 50 60
20.04.2018 12:00:00 17,9 6,1 22,7 16,4 9,8 4,9 13 7 21 12 SSE 50 60
20.04.2018 11:00:00 16,7 6,9 20,9 13,9 9,7 4,9 16 8 25 13 SSE 50 60
20.04.2018 10:00:00 15,7 6,0 18,3 11,4 9,8 4,8 16 8 26 14 ESE 40 60
20.04.2018 09:00:00 13,9 6,8 15,6 9,3 9,9 4,8 16 9 30 16 SE 40 60
20.04.2018 08:00:00 12,6 6,1 12,3 8,1 10,1 4,8 22 12 34 18 ESE 35 60
20.04.2018 07:00:00 11,5 5,7 9,3 8,0 10,3 4,8 24 13 39 21 SE 35 29
20.04.2018 06:00:00 11,2 5,2 8,8 8,2 10,5 4,8 26 14 40 21 SE 35 0
20.04.2018 05:00:00 11,3 5,4 9,3 8,4 10,8 4,8 31 17 38 20 SE 30 0
20.04.2018 04:00:00 11,1 4,8 8,9 8,6 11,0 4,8 27 14 37 20 SE 30 0
20.04.2018 03:00:00 11,5 3,9 9,1 9,0 11,3 4,8 28 15 38 21 SE 30 0
20.04.2018 02:00:00 11,0 4,3 9,0 9,4 11,6 4,8 30 16 36 19 ESE 25 0
20.04.2018 01:00:00 11,0 4,6 9,2 9,9 11,8 4,7 28 15 35 19 ESE 25 0
20.04.2018 00:00:00 12,0 2,4 9,8 10,5 12,1 4,7 29 16 32 17 ESE 70 0
19.04.2018 23:00:00 12,1 1,5 9,7 11,4 12,3 4,7 26 14 29 16 ESE 30 0
19.04.2018 22:00:00 12,0 3,9 9,6 12,6 12,5 4,7 21 11 24 13 E 30 0
19.04.2018 21:00:00 12,0 4,5 9,8 14,1 12,5 4,7 18 10 23 12 E 35 0
19.04.2018 20:00:00 12,7 5,4 10,7 16,2 12,3 4,7 16 8 19 10 ESE 50 40
19.04.2018 19:00:00 14,3 4,2 13,7 18,8 12,0 4,7 15 8 22 12 E 60 60
19.04.2018 18:00:00 15,5 4,1 16,7 20,4 11,6 4,7 16 9 26 14 ESE 60 59
19.04.2018 17:00:00 16,6 4,4 18,8 21,2 11,0 4,6 20 11 28 15 E 60 60
19.04.2018 16:00:00 17,0 3,5 20,2 21,3 10,4 4,6 18 10 30 16 E 60 60
19.04.2018 15:00:00 17,5 4,1 21,3 20,7 9,8 4,6 17 9 29 15 E 50 60
19.04.2018 14:00:00 17,4 5,7 21,6 19,4 9,3 4,6 15 8 29 16 E 45 60
19.04.2018 13:00:00 17,3 5,1 21,7 17,3 8,8 4,6 15 8 27 14 E 45 60
19.04.2018 12:00:00 16,3 5,6 20,5 15,2 8,5 4,6 12 7 20 11 E 45 60
19.04.2018 11:00:00 14,7 3,2 18,0 12,9 8,3 4,6 10 5 20 11 E 45 60
19.04.2018 10:00:00 13,5 5,8 16,1 9,9 8,3 4,6 15 8 23 12 E 40 60
19.04.2018 09:00:00 12,3 5,9 13,5 7,4 8,5 4,6 19 10 29 15 ESE 30 60
19.04.2018 08:00:00 11,2 4,7 10,7 5,9 8,7 4,6 21 11 26 14 ESE 19 60
19.04.2018 07:00:00 9,8 3,7 7,4 5,5 9,0 4,5 21 12 23 12 ESE 18 24
19.04.2018 06:00:00 9,3 2,4 6,3 5,7 9,3 4,5 20 11 24 13 ESE 18 0
19.04.2018 05:00:00 8,9 3,5 6,2 5,8 9,6 4,5 20 11 24 13 ESE 16 0
19.04.2018 04:00:00 9,3 2,7 6,0 6,1 9,9 4,5 16 9 19 11 ESE 14 0
19.04.2018 03:00:00 9,8 3,6 4,3 6,7 10,3 4,5 9 5 12 6 E 14 0
19.04.2018 02:00:00 10,5 4,0 3,6 7,4 10,6 4,5 6 4 10 5 E 18 0
19.04.2018 01:00:00 10,7 3,5 4,9 8,1 10,9 4,5 9 5 10 5 E 20 0
19.04.2018 00:00:00 10,8 3,1 5,2 9,0 11,2 4,5 10 5 12 6 E 30 0
18.04.2018 23:00:00 11,2 3,2 5,9 10,0 11,5 4,5 9 5 10 5 E 30 0
18.04.2018 22:00:00 11,7 1,9 7,8 11,3 11,7 4,5 8 5 10 5 ENE 50 0
18.04.2018 21:00:00 12,1 1,9 8,6 12,9 11,8 4,5 9 5 11 6 NE 60 0
18.04.2018 20:00:00 13,1 -1,9 10,2 15,1 11,7 4,4 9 5 18 10 NNE 60 56
18.04.2018 19:00:00 14,7 -0,7 13,2 18,4 11,3 4,4 15 8 18 10 N 70 60
18.04.2018 18:00:00 15,8 -0,4 16,0 20,4 10,8 4,4 14 7 18 10 N 70 60
18.04.2018 17:00:00 16,8 0,4 17,7 21,2 10,2 4,4 12 7 24 13 NNW 70 60
18.04.2018 16:00:00 16,9 0,3 18,7 21,3 9,6 4,4 12 7 18 10 NNW 70 60
18.04.2018 15:00:00 16,2 0,6 19,4 20,4 8,9 4,4 11 6 20 11 N 70 60
18.04.2018 14:00:00 15,4 -0,5 18,6 18,9 8,3 4,4 11 6 18 10 N 70 60
18.04.2018 13:00:00 14,9 0,0 18,7 16,7 7,8 4,4 9 5 18 10 N 70 60
18.04.2018 12:00:00 13,8 1,2 17,6 14,2 7,5 4,4 8 4 19 10 NNE 60 60
18.04.2018 11:00:00 12,7 -1,8 15,6 11,5 7,4 4,4 10 5 16 9 N 50 60
18.04.2018 10:00:00 12,0 0,2 14,6 8,7 7,4 4,3 11 6 17 9 N 50 60
18.04.2018 09:00:00 11,0 0,7 13,1 6,1 7,6 4,3 10 5 16 9 NNW 50 60
18.04.2018 08:00:00 8,9 3,9 7,5 4,7 7,8 4,3 14 8 16 9 NNW 30 60
18.04.2018 07:00:00 7,4 5,5 4,3 4,5 8,0 4,3 16 9 18 10 NW 30 23
18.04.2018 06:00:00 6,7 5,4 3,6 4,9 8,3 4,3 16 9 19 10 WNW 30 0
18.04.2018 05:00:00 6,4 5,0 3,7 5,3 8,6 4,3 17 9 19 11 W 30 0
18.04.2018 04:00:00 6,8 4,9 4,2 5,8 8,8 4,3 18 10 20 11 WNW 30 0
18.04.2018 03:00:00 7,1 4,7 4,8 6,2 9,1 4,3 18 10 20 11 WNW 30 0
18.04.2018 02:00:00 7,0 4,6 5,0 6,7 9,4 4,3 18 10 19 10 W 30 0
18.04.2018 01:00:00 6,9 4,8 4,5 7,3 9,7 4,3 14 8 16 8 W 30 0
18.04.2018 00:00:00 7,4 4,7 5,3 7,9 9,9 4,3 11 6 16 9 W 30 0
17.04.2018 23:00:00 7,3 4,7 4,6 8,7 10,2 4,3 13 7 19 10 WSW 30 0
17.04.2018 22:00:00 7,4 4,8 4,9 9,8 10,3 4,3 11 6 14 8 S 30 0
17.04.2018 21:00:00 8,0 4,9 5,6 11,2 10,4 4,3 7 4 11 6 N 30 0
17.04.2018 20:00:00 8,8 5,2 7,2 13,2 10,3 4,2 10 6 16 8 N 20 51
17.04.2018 19:00:00 10,9 5,7 9,8 15,8 10,0 4,2 12 6 21 11 WNW 20 60
17.04.2018 18:00:00 11,8 5,0 12,1 17,0 9,7 4,2 14 8 23 12 WNW 25 59
17.04.2018 17:00:00 11,7 4,7 12,5 17,2 9,3 4,2 17 9 31 17 WNW 28 45
17.04.2018 16:00:00 11,5 5,2 12,6 17,7 8,8 4,2 18 10 24 13 WNW 28 46
17.04.2018 15:00:00 11,5 5,5 15,0 17,5 8,3 4,2 17 9 27 15 WNW 25 55
17.04.2018 14:00:00 10,9 5,7 14,2 16,1 7,8 4,2 18 10 27 15 WNW 25 38
17.04.2018 13:00:00 10,0 4,5 12,4 15,0 7,4 4,2 17 9 27 15 WNW 25 46
17.04.2018 12:00:00 9,5 6,1 12,5 13,3 7,1 4,2 16 9 24 13 WNW 16 53
17.04.2018 11:00:00 8,1 6,4 10,1 11,4 6,8 4,2 15 8 23 12 WNW 14 55
17.04.2018 10:00:00 7,1 6,7 9,6 9,4 6,7 4,1 16 9 22 12 WNW 10 40
17.04.2018 09:00:00 6,5 6,5 8,3 7,8 6,7 4,1 13 7 22 12 W 0,1 11
17.04.2018 08:00:00 6,1 6,1 6,8 6,7 6,8 4,1 16 9 29 15 WNW - 0
17.04.2018 07:00:00 5,8 5,8 5,9 6,2 6,8 4,1 18 10 29 15 WNW - 0
17.04.2018 06:00:00 6,1 6,1 6,0 6,2 6,9 4,1 27 15 34 19 WNW - 0
17.04.2018 05:00:00 6,4 6,4 6,2 6,0 7,0 4,1 20 11 30 16 WNW - 0
17.04.2018 04:00:00 6,2 6,2 6,0 5,7 7,1 4,1 25 13 33 18 WNW - 0
17.04.2018 03:00:00 5,2 5,2 4,5 5,5 7,2 4,1 23 12 30 16 WNW 0,2 0
17.04.2018 02:00:00 5,5 5,5 5,2 6,0 7,3 4,1 22 12 30 16 WNW 0,1 0
17.04.2018 01:00:00 5,0 5,0 4,0 6,3 7,4 4,0 23 13 26 14 NW 16 0
17.04.2018 00:00:00 5,7 5,7 5,5 6,8 7,5 4,0 19 11 35 19 NW 0,1 0

tt = Température de l'air
td = dewpoint
tt 5cm = Température de l'air 5cm
tt -5cm = Température de l'air -5cm
tt -20cm = Température de l'air -20cm
tt -100cm = Température de l'air -100cm
ff = Vitesse du vent
fx = gusts
dd = Direction du vent
vv = visibility
sd = Ensoleillement

stations d'obs. à proximité